Time;durP1;ratioP1;P1;durP2;ratioP2;P2;SDS_P1;SDS_P2;PMS_P1;PMS_P2;Temp;Humidity;BMP_temperature;BMP_pressure;BME280_temperature;BME280_humidity;BME280_pressure;Samples;Min_cycle;Max_cycle;Signal;HPM_P1;HPM_P2
2022/08/24 00:00:26;;;;;;;5.55;5.149999;;;;;;;13.17;66.69531;95530.78;;;;
2022/08/24 00:01:28;;;;;;;5.55;5.149999;;;;;;;13.17;66.69531;95530.78;;;;
2022/08/24 00:02:28;;;;;;;5.55;5.149999;;;;;;;13.17;66.69531;95530.78;;;;
2022/08/24 00:03:29;;;;;;;5.55;5.149999;;;;;;;13.17;66.69531;95530.78;;;;
2022/08/24 00:04:29;;;;;;;5.55;5.149999;;;;;;;13.17;66.69531;95530.78;;;;
2022/08/24 00:05:30;;;;;;;5.55;5.149999;;;;;;;13.17;66.69531;95530.78;;;;
2022/08/24 00:06:31;;;;;;;5.55;5.149999;;;;;;;13.17;66.69531;95530.78;;;;
2022/08/24 00:07:33;;;;;;;5.55;5.149999;;;;;;;13.17;66.69531;95530.78;;;;
2022/08/24 00:08:35;;;;;;;5.7;5.1;;;;;;;13.04;67.12988;95529.71;;;;
2022/08/24 00:09:36;;;;;;;5.7;5.1;;;;;;;13.04;67.12988;95529.71;;;;
2022/08/24 00:10:37;;;;;;;5.7;5.1;;;;;;;13.04;67.12988;95529.71;;;;
2022/08/24 00:11:37;;;;;;;5.7;5.1;;;;;;;13.04;67.12988;95529.71;;;;
2022/08/24 00:12:38;;;;;;;5.7;5.1;;;;;;;13.04;67.12988;95529.71;;;;
2022/08/24 00:13:39;;;;;;;5.7;5.1;;;;;;;13.04;67.12988;95529.71;;;;
2022/08/24 00:14:40;;;;;;;5.7;5.1;;;;;;;13.04;67.12988;95529.71;;;;
2022/08/24 00:15:42;;;;;;;5.7;5.1;;;;;;;13.04;67.12988;95529.71;;;;
2022/08/24 00:16:43;;;;;;;5.7;5.1;;;;;;;13.04;67.12988;95529.71;;;;
2022/08/24 00:17:44;;;;;;;5.7;5.1;;;;;;;13.04;67.12988;95529.71;;;;
2022/08/24 00:18:45;;;;;;;6.1;5.55;;;;;;;12.85;67.55664;95525.39;;;;
2022/08/24 00:19:46;;;;;;;6.1;5.55;;;;;;;12.85;67.55664;95525.39;;;;
2022/08/24 00:20:47;;;;;;;6.1;5.55;;;;;;;12.85;67.55664;95525.39;;;;
2022/08/24 00:21:48;;;;;;;6.1;5.55;;;;;;;12.85;67.55664;95525.39;;;;
2022/08/24 00:22:48;;;;;;;6.1;5.55;;;;;;;12.85;67.55664;95525.39;;;;
2022/08/24 00:23:49;;;;;;;6.1;5.55;;;;;;;12.85;67.55664;95525.39;;;;
2022/08/24 00:24:49;;;;;;;6.1;5.55;;;;;;;12.85;67.55664;95525.39;;;;
2022/08/24 00:25:50;;;;;;;6.1;5.55;;;;;;;12.85;67.55664;95525.39;;;;
2022/08/24 00:26:51;;;;;;;6.1;5.55;;;;;;;12.85;67.55664;95525.39;;;;
2022/08/24 00:27:52;;;;;;;6.1;5.55;;;;;;;12.85;67.55664;95525.39;;;;
2022/08/24 00:28:52;;;;;;;6.1;5.55;;;;;;;12.85;67.55664;95525.39;;;;
2022/08/24 00:29:54;;;;;;;7.45;5.65;;;;;;;12.73;67.91797;95516.92;;;;
2022/08/24 00:30:54;;;;;;;7.45;5.65;;;;;;;12.73;67.91797;95516.92;;;;
2022/08/24 00:31:55;;;;;;;7.45;5.65;;;;;;;12.73;67.91797;95516.92;;;;
2022/08/24 00:32:55;;;;;;;7.45;5.65;;;;;;;12.73;67.91797;95516.92;;;;
2022/08/24 00:33:58;;;;;;;7.45;5.65;;;;;;;12.73;67.91797;95516.92;;;;
2022/08/24 00:34:58;;;;;;;7.45;5.65;;;;;;;12.73;67.91797;95516.92;;;;
2022/08/24 00:36:00;;;;;;;7.45;5.65;;;;;;;12.73;67.91797;95516.92;;;;
2022/08/24 00:37:01;;;;;;;7.45;5.65;;;;;;;12.73;67.91797;95516.92;;;;
2022/08/24 00:38:02;;;;;;;7.45;5.65;;;;;;;12.73;67.91797;95516.92;;;;
2022/08/24 00:39:03;;;;;;;7.45;5.65;;;;;;;12.73;67.91797;95516.92;;;;
2022/08/24 00:40:04;;;;;;;7.000001;5.55;;;;;;;12.58;68.30664;95524.31;;;;
2022/08/24 00:41:10;;;;;;;7.000001;5.55;;;;;;;12.58;68.30664;95524.31;;;;
2022/08/24 00:42:13;;;;;;;7.000001;5.55;;;;;;;12.58;68.30664;95524.31;;;;
2022/08/24 00:43:13;;;;;;;7.000001;5.55;;;;;;;12.58;68.30664;95524.31;;;;
2022/08/24 00:44:17;;;;;;;7.000001;5.55;;;;;;;12.58;68.30664;95524.31;;;;
2022/08/24 00:45:19;;;;;;;7.000001;5.55;;;;;;;12.58;68.30664;95524.31;;;;
2022/08/24 00:46:21;;;;;;;7.000001;5.55;;;;;;;12.58;68.30664;95524.31;;;;
2022/08/24 00:47:25;;;;;;;7.000001;5.55;;;;;;;12.58;68.30664;95524.31;;;;
2022/08/24 00:48:30;;;;;;;7.000001;5.55;;;;;;;12.58;68.30664;95524.31;;;;
2022/08/24 00:49:36;;;;;;;7.000001;5.55;;;;;;;12.58;68.30664;95524.31;;;;
2022/08/24 00:50:41;;;;;;;6.3;5.5;;;;;;;12.49;68.61719;95519.92;;;;
2022/08/24 00:51:46;;;;;;;6.3;5.5;;;;;;;12.49;68.61719;95519.92;;;;
2022/08/24 00:52:55;;;;;;;6.3;5.5;;;;;;;12.49;68.61719;95519.92;;;;
2022/08/24 00:53:58;;;;;;;6.3;5.5;;;;;;;12.49;68.61719;95519.92;;;;
2022/08/24 00:55:05;;;;;;;6.3;5.5;;;;;;;12.49;68.61719;95519.92;;;;
2022/08/24 00:56:10;;;;;;;6.3;5.5;;;;;;;12.49;68.61719;95519.92;;;;
2022/08/24 00:57:14;;;;;;;6.3;5.5;;;;;;;12.49;68.61719;95519.92;;;;
2022/08/24 00:58:19;;;;;;;6.3;5.5;;;;;;;12.49;68.61719;95519.92;;;;
2022/08/24 00:59:23;;;;;;;6.3;5.5;;;;;;;12.49;68.61719;95519.92;;;;
2022/08/24 01:00:27;;;;;;;6.3;5.5;;;;;;;12.49;68.61719;95519.92;;;;
2022/08/24 01:01:30;;;;;;;5.450001;5.050001;;;;;;;12.32;68.95801;95512.61;;;;
2022/08/24 01:02:34;;;;;;;5.450001;5.050001;;;;;;;12.32;68.95801;95512.61;;;;
2022/08/24 01:03:37;;;;;;;5.450001;5.050001;;;;;;;12.32;68.95801;95512.61;;;;
2022/08/24 01:04:38;;;;;;;5.450001;5.050001;;;;;;;12.32;68.95801;95512.61;;;;
2022/08/24 01:05:44;;;;;;;5.450001;5.050001;;;;;;;12.32;68.95801;95512.61;;;;
2022/08/24 01:06:45;;;;;;;5.450001;5.050001;;;;;;;12.32;68.95801;95512.61;;;;
2022/08/24 01:07:49;;;;;;;5.450001;5.050001;;;;;;;12.32;68.95801;95512.61;;;;
2022/08/24 01:08:50;;;;;;;5.450001;5.050001;;;;;;;12.32;68.95801;95512.61;;;;
2022/08/24 01:09:51;;;;;;;5.450001;5.050001;;;;;;;12.32;68.95801;95512.61;;;;
2022/08/24 01:10:54;;;;;;;5.450001;5.050001;;;;;;;12.32;68.95801;95512.61;;;;
2022/08/24 01:11:59;;;;;;;6.299999;5.700001;;;;;;;12.22;69.26758;95516.25;;;;
2022/08/24 01:13:00;;;;;;;6.299999;5.700001;;;;;;;12.22;69.26758;95516.25;;;;
2022/08/24 01:14:03;;;;;;;6.299999;5.700001;;;;;;;12.22;69.26758;95516.25;;;;
2022/08/24 01:15:05;;;;;;;6.299999;5.700001;;;;;;;12.22;69.26758;95516.25;;;;
2022/08/24 01:16:08;;;;;;;6.299999;5.700001;;;;;;;12.22;69.26758;95516.25;;;;
2022/08/24 01:22:24;;;;;;;6.299999;5.700001;;;;;;;12.22;69.26758;95516.25;;;;
2022/08/24 01:23:44;;;;;;;6.4;5.799999;;;;;;;12.04;69.58398;95519.37;;;;
2022/08/24 01:24:47;;;;;;;6.4;5.799999;;;;;;;12.04;69.58398;95519.37;;;;
2022/08/24 01:25:47;;;;;;;6.4;5.799999;;;;;;;12.04;69.58398;95519.37;;;;
2022/08/24 01:26:48;;;;;;;6.4;5.799999;;;;;;;12.04;69.58398;95519.37;;;;
2022/08/24 01:27:50;;;;;;;6.4;5.799999;;;;;;;12.04;69.58398;95519.37;;;;
2022/08/24 01:28:54;;;;;;;6.4;5.799999;;;;;;;12.04;69.58398;95519.37;;;;
2022/08/24 01:30:00;;;;;;;6.4;5.799999;;;;;;;12.04;69.58398;95519.37;;;;
2022/08/24 01:31:04;;;;;;;6.4;5.799999;;;;;;;12.04;69.58398;95519.37;;;;
2022/08/24 01:32:06;;;;;;;6.4;5.799999;;;;;;;12.04;69.58398;95519.37;;;;
2022/08/24 01:33:07;;;;;;;6.4;5.799999;;;;;;;12.04;69.58398;95519.37;;;;
2022/08/24 01:34:10;;;;;;;7;6.299999;;;;;;;11.95;69.88281;95516.16;;;;
2022/08/24 01:35:10;;;;;;;7;6.299999;;;;;;;11.95;69.88281;95516.16;;;;
2022/08/24 01:36:10;;;;;;;7;6.299999;;;;;;;11.95;69.88281;95516.16;;;;
2022/08/24 01:37:16;;;;;;;7;6.299999;;;;;;;11.95;69.88281;95516.16;;;;
2022/08/24 01:38:17;;;;;;;7;6.299999;;;;;;;11.95;69.88281;95516.16;;;;
2022/08/24 01:39:17;;;;;;;7;6.299999;;;;;;;11.95;69.88281;95516.16;;;;
2022/08/24 01:40:21;;;;;;;7;6.299999;;;;;;;11.95;69.88281;95516.16;;;;
2022/08/24 01:41:27;;;;;;;7;6.299999;;;;;;;11.95;69.88281;95516.16;;;;
2022/08/24 01:42:28;;;;;;;7;6.299999;;;;;;;11.95;69.88281;95516.16;;;;
2022/08/24 01:43:29;;;;;;;7;6.299999;;;;;;;11.95;69.88281;95516.16;;;;
2022/08/24 01:44:29;;;;;;;6.950001;6.05;;;;;;;11.78;70.09473;95523.39;;;;
2022/08/24 01:45:33;;;;;;;6.950001;6.05;;;;;;;11.78;70.09473;95523.39;;;;
2022/08/24 01:46:34;;;;;;;6.950001;6.05;;;;;;;11.78;70.09473;95523.39;;;;
2022/08/24 01:47:35;;;;;;;6.950001;6.05;;;;;;;11.78;70.09473;95523.39;;;;
2022/08/24 01:48:35;;;;;;;6.950001;6.05;;;;;;;11.78;70.09473;95523.39;;;;
2022/08/24 01:49:36;;;;;;;6.950001;6.05;;;;;;;11.78;70.09473;95523.39;;;;
2022/08/24 01:50:39;;;;;;;6.950001;6.05;;;;;;;11.78;70.09473;95523.39;;;;
2022/08/24 01:51:41;;;;;;;6.950001;6.05;;;;;;;11.78;70.09473;95523.39;;;;
2022/08/24 01:52:43;;;;;;;6.950001;6.05;;;;;;;11.78;70.09473;95523.39;;;;
2022/08/24 01:53:43;;;;;;;6.950001;6.05;;;;;;;11.78;70.09473;95523.39;;;;
2022/08/24 01:54:44;;;;;;;6.950001;6.05;;;;;;;11.78;70.09473;95523.39;;;;
2022/08/24 01:55:44;;;;;;;6.950001;6.05;;;;;;;11.78;70.09473;95523.39;;;;
2022/08/24 01:56:45;;;;;;;6.950001;6.05;;;;;;;11.78;70.09473;95523.39;;;;
2022/08/24 01:57:46;;;;;;;6.950001;6.05;;;;;;;11.78;70.09473;95523.39;;;;
2022/08/24 01:58:46;;;;;;;6.950001;6.05;;;;;;;11.78;70.09473;95523.39;;;;
2022/08/24 01:59:47;;;;;;;6.950001;6.05;;;;;;;11.78;70.09473;95523.39;;;;
2022/08/24 02:00:48;;;;;;;6.950001;6.05;;;;;;;11.78;70.09473;95523.39;;;;
2022/08/24 02:01:48;;;;;;;6.950001;6.05;;;;;;;11.78;70.09473;95523.39;;;;
2022/08/24 02:02:55;;;;;;;6.950001;6.05;;;;;;;11.78;70.09473;95523.39;;;;
2022/08/24 02:03:55;;;;;;;6.950001;6.05;;;;;;;11.78;70.09473;95523.39;;;;
2022/08/24 02:04:59;;;;;;;6.950001;6.05;;;;;;;11.78;70.09473;95523.39;;;;
2022/08/24 02:05:59;;;;;;;6.7;5.950001;;;;;;;11.55;70.78125;95511.69;;;;
2022/08/24 02:07:00;;;;;;;6.7;5.950001;;;;;;;11.55;70.78125;95511.69;;;;
2022/08/24 02:08:00;;;;;;;6.7;5.950001;;;;;;;11.55;70.78125;95511.69;;;;
2022/08/24 02:09:01;;;;;;;6.7;5.950001;;;;;;;11.55;70.78125;95511.69;;;;
2022/08/24 02:10:03;;;;;;;6.7;5.950001;;;;;;;11.55;70.78125;95511.69;;;;
2022/08/24 02:11:07;;;;;;;6.7;5.950001;;;;;;;11.55;70.78125;95511.69;;;;
2022/08/24 02:12:09;;;;;;;6.7;5.950001;;;;;;;11.55;70.78125;95511.69;;;;
2022/08/24 02:13:10;;;;;;;6.7;5.950001;;;;;;;11.55;70.78125;95511.69;;;;
2022/08/24 02:14:10;;;;;;;6.7;5.950001;;;;;;;11.55;70.78125;95511.69;;;;
2022/08/24 02:15:11;;;;;;;6.7;5.950001;;;;;;;11.55;70.78125;95511.69;;;;
2022/08/24 02:16:13;;;;;;;6.55;5.849999;;;;;;;11.48;70.99609;95521.49;;;;
2022/08/24 02:17:13;;;;;;;6.55;5.849999;;;;;;;11.48;70.99609;95521.49;;;;
2022/08/24 02:18:14;;;;;;;6.55;5.849999;;;;;;;11.48;70.99609;95521.49;;;;
2022/08/24 02:19:14;;;;;;;6.55;5.849999;;;;;;;11.48;70.99609;95521.49;;;;
2022/08/24 02:20:15;;;;;;;6.55;5.849999;;;;;;;11.48;70.99609;95521.49;;;;
2022/08/24 02:21:16;;;;;;;6.55;5.849999;;;;;;;11.48;70.99609;95521.49;;;;
2022/08/24 02:22:16;;;;;;;6.55;5.849999;;;;;;;11.48;70.99609;95521.49;;;;
2022/08/24 02:23:17;;;;;;;6.55;5.849999;;;;;;;11.48;70.99609;95521.49;;;;
2022/08/24 02:24:18;;;;;;;6.55;5.849999;;;;;;;11.48;70.99609;95521.49;;;;
2022/08/24 02:25:19;;;;;;;6.55;5.849999;;;;;;;11.48;70.99609;95521.49;;;;
2022/08/24 02:26:20;;;;;;;6.55;5.849999;;;;;;;11.48;70.99609;95521.49;;;;
2022/08/24 02:27:20;;;;;;;6.750001;6.15;;;;;;;11.35;71.30859;95515.34;;;;
2022/08/24 02:28:21;;;;;;;6.750001;6.15;;;;;;;11.35;71.30859;95515.34;;;;
2022/08/24 02:29:21;;;;;;;6.750001;6.15;;;;;;;11.35;71.30859;95515.34;;;;
2022/08/24 02:30:22;;;;;;;6.750001;6.15;;;;;;;11.35;71.30859;95515.34;;;;
2022/08/24 02:31:23;;;;;;;6.750001;6.15;;;;;;;11.35;71.30859;95515.34;;;;
2022/08/24 02:32:23;;;;;;;6.750001;6.15;;;;;;;11.35;71.30859;95515.34;;;;
2022/08/24 02:33:24;;;;;;;6.750001;6.15;;;;;;;11.35;71.30859;95515.34;;;;
2022/08/24 02:34:24;;;;;;;6.750001;6.15;;;;;;;11.35;71.30859;95515.34;;;;
2022/08/24 02:35:25;;;;;;;6.750001;6.15;;;;;;;11.35;71.30859;95515.34;;;;
2022/08/24 02:36:29;;;;;;;6.750001;6.15;;;;;;;11.35;71.30859;95515.34;;;;
2022/08/24 02:37:29;;;;;;;7.000001;6.299999;;;;;;;11.3;71.58203;95517.81;;;;
2022/08/24 02:38:30;;;;;;;7.000001;6.299999;;;;;;;11.3;71.58203;95517.81;;;;
2022/08/24 02:39:30;;;;;;;7.000001;6.299999;;;;;;;11.3;71.58203;95517.81;;;;
2022/08/24 02:40:32;;;;;;;7.000001;6.299999;;;;;;;11.3;71.58203;95517.81;;;;
2022/08/24 02:41:33;;;;;;;7.000001;6.299999;;;;;;;11.3;71.58203;95517.81;;;;
2022/08/24 02:42:34;;;;;;;7.000001;6.299999;;;;;;;11.3;71.58203;95517.81;;;;
2022/08/24 02:43:35;;;;;;;7.000001;6.299999;;;;;;;11.3;71.58203;95517.81;;;;
2022/08/24 02:44:36;;;;;;;7.000001;6.299999;;;;;;;11.3;71.58203;95517.81;;;;
2022/08/24 02:45:36;;;;;;;7.000001;6.299999;;;;;;;11.3;71.58203;95517.81;;;;
2022/08/24 02:46:38;;;;;;;7.000001;6.299999;;;;;;;11.3;71.58203;95517.81;;;;
2022/08/24 02:47:40;;;;;;;7.000001;6.299999;;;;;;;11.3;71.58203;95517.81;;;;
2022/08/24 02:48:41;;;;;;;7.349999;6.5;;;;;;;11.19;71.78027;95516.66;;;;
2022/08/24 02:49:41;;;;;;;7.349999;6.5;;;;;;;11.19;71.78027;95516.66;;;;
2022/08/24 02:50:42;;;;;;;7.349999;6.5;;;;;;;11.19;71.78027;95516.66;;;;
2022/08/24 02:51:46;;;;;;;7.349999;6.5;;;;;;;11.19;71.78027;95516.66;;;;
2022/08/24 02:52:47;;;;;;;7.349999;6.5;;;;;;;11.19;71.78027;95516.66;;;;
2022/08/24 02:53:48;;;;;;;7.349999;6.5;;;;;;;11.19;71.78027;95516.66;;;;
2022/08/24 02:54:49;;;;;;;7.349999;6.5;;;;;;;11.19;71.78027;95516.66;;;;
2022/08/24 02:55:49;;;;;;;7.349999;6.5;;;;;;;11.19;71.78027;95516.66;;;;
2022/08/24 02:56:50;;;;;;;7.349999;6.5;;;;;;;11.19;71.78027;95516.66;;;;
2022/08/24 02:57:51;;;;;;;7.349999;6.5;;;;;;;11.19;71.78027;95516.66;;;;
2022/08/24 02:58:52;;;;;;;7.45;6.750001;;;;;;;11.17;72.04688;95523.97;;;;
2022/08/24 02:59:52;;;;;;;7.45;6.750001;;;;;;;11.17;72.04688;95523.97;;;;
2022/08/24 03:00:52;;;;;;;7.45;6.750001;;;;;;;11.17;72.04688;95523.97;;;;
2022/08/24 03:01:53;;;;;;;7.45;6.750001;;;;;;;11.17;72.04688;95523.97;;;;
2022/08/24 03:02:54;;;;;;;7.45;6.750001;;;;;;;11.17;72.04688;95523.97;;;;
2022/08/24 03:03:54;;;;;;;7.45;6.750001;;;;;;;11.17;72.04688;95523.97;;;;
2022/08/24 03:04:55;;;;;;;7.45;6.750001;;;;;;;11.17;72.04688;95523.97;;;;
2022/08/24 03:05:55;;;;;;;7.45;6.750001;;;;;;;11.17;72.04688;95523.97;;;;
2022/08/24 03:06:56;;;;;;;7.45;6.750001;;;;;;;11.17;72.04688;95523.97;;;;
2022/08/24 03:07:56;;;;;;;7.45;6.750001;;;;;;;11.17;72.04688;95523.97;;;;
2022/08/24 03:08:57;;;;;;;7.45;6.750001;;;;;;;11.17;72.04688;95523.97;;;;
2022/08/24 03:09:58;;;;;;;7.2;6.5;;;;;;;11.04;72.28223;95525.47;;;;
2022/08/24 03:10:59;;;;;;;7.2;6.5;;;;;;;11.04;72.28223;95525.47;;;;
2022/08/24 03:12:00;;;;;;;7.2;6.5;;;;;;;11.04;72.28223;95525.47;;;;
2022/08/24 03:13:01;;;;;;;7.2;6.5;;;;;;;11.04;72.28223;95525.47;;;;
2022/08/24 03:14:02;;;;;;;7.2;6.5;;;;;;;11.04;72.28223;95525.47;;;;
2022/08/24 03:15:03;;;;;;;7.2;6.5;;;;;;;11.04;72.28223;95525.47;;;;
2022/08/24 03:16:06;;;;;;;7.2;6.5;;;;;;;11.04;72.28223;95525.47;;;;
2022/08/24 03:17:07;;;;;;;7.2;6.5;;;;;;;11.04;72.28223;95525.47;;;;
2022/08/24 03:18:07;;;;;;;7.2;6.5;;;;;;;11.04;72.28223;95525.47;;;;
2022/08/24 03:19:08;;;;;;;7.2;6.5;;;;;;;11.04;72.28223;95525.47;;;;
2022/08/24 03:20:09;;;;;;;7.050001;6.45;;;;;;;10.99;72.44824;95517.22;;;;
2022/08/24 03:21:15;;;;;;;7.050001;6.45;;;;;;;10.99;72.44824;95517.22;;;;
2022/08/24 03:22:16;;;;;;;7.050001;6.45;;;;;;;10.99;72.44824;95517.22;;;;
2022/08/24 03:23:16;;;;;;;7.050001;6.45;;;;;;;10.99;72.44824;95517.22;;;;
2022/08/24 03:24:17;;;;;;;7.050001;6.45;;;;;;;10.99;72.44824;95517.22;;;;
2022/08/24 03:25:17;;;;;;;7.050001;6.45;;;;;;;10.99;72.44824;95517.22;;;;
2022/08/24 03:26:20;;;;;;;7.050001;6.45;;;;;;;10.99;72.44824;95517.22;;;;
2022/08/24 03:27:20;;;;;;;7.050001;6.45;;;;;;;10.99;72.44824;95517.22;;;;
2022/08/24 03:28:22;;;;;;;7.050001;6.45;;;;;;;10.99;72.44824;95517.22;;;;
2022/08/24 03:29:23;;;;;;;7.050001;6.45;;;;;;;10.99;72.44824;95517.22;;;;
2022/08/24 03:30:23;;;;;;;7.050001;6.45;;;;;;;10.99;72.44824;95517.22;;;;
2022/08/24 03:31:24;;;;;;;7.349999;6.2;;;;;;;10.89;72.67773;95514.31;;;;
2022/08/24 03:32:25;;;;;;;7.349999;6.2;;;;;;;10.89;72.67773;95514.31;;;;
2022/08/24 03:33:26;;;;;;;7.349999;6.2;;;;;;;10.89;72.67773;95514.31;;;;
2022/08/24 03:34:26;;;;;;;7.349999;6.2;;;;;;;10.89;72.67773;95514.31;;;;
2022/08/24 03:35:27;;;;;;;7.349999;6.2;;;;;;;10.89;72.67773;95514.31;;;;
2022/08/24 03:36:28;;;;;;;7.349999;6.2;;;;;;;10.89;72.67773;95514.31;;;;
2022/08/24 03:37:28;;;;;;;7.349999;6.2;;;;;;;10.89;72.67773;95514.31;;;;
2022/08/24 03:38:29;;;;;;;7.349999;6.2;;;;;;;10.89;72.67773;95514.31;;;;
2022/08/24 03:39:29;;;;;;;7.349999;6.2;;;;;;;10.89;72.67773;95514.31;;;;
2022/08/24 03:40:32;;;;;;;7.349999;6.2;;;;;;;10.89;72.67773;95514.31;;;;
2022/08/24 03:41:32;;;;;;;6.950001;6.349999;;;;;;;10.85;72.87598;95521.84;;;;
2022/08/24 03:42:33;;;;;;;6.950001;6.349999;;;;;;;10.85;72.87598;95521.84;;;;
2022/08/24 03:43:50;;;;;;;6.950001;6.349999;;;;;;;10.85;72.87598;95521.84;;;;
2022/08/24 03:44:50;;;;;;;6.950001;6.349999;;;;;;;10.85;72.87598;95521.84;;;;
2022/08/24 03:45:51;;;;;;;6.950001;6.349999;;;;;;;10.85;72.87598;95521.84;;;;
2022/08/24 03:46:52;;;;;;;6.950001;6.349999;;;;;;;10.85;72.87598;95521.84;;;;
2022/08/24 03:47:52;;;;;;;6.950001;6.349999;;;;;;;10.85;72.87598;95521.84;;;;
2022/08/24 03:48:53;;;;;;;6.950001;6.349999;;;;;;;10.85;72.87598;95521.84;;;;
2022/08/24 03:49:56;;;;;;;6.950001;6.349999;;;;;;;10.85;72.87598;95521.84;;;;
2022/08/24 03:50:56;;;;;;;6.950001;6.349999;;;;;;;10.85;72.87598;95521.84;;;;
2022/08/24 03:51:57;;;;;;;6.950001;6.349999;;;;;;;10.85;72.87598;95521.84;;;;
2022/08/24 03:52:58;;;;;;;7.3;6.6;;;;;;;10.75;73.07422;95531.24;;;;
2022/08/24 03:53:58;;;;;;;7.3;6.6;;;;;;;10.75;73.07422;95531.24;;;;
2022/08/24 03:54:59;;;;;;;7.3;6.6;;;;;;;10.75;73.07422;95531.24;;;;
2022/08/24 03:56:00;;;;;;;7.3;6.6;;;;;;;10.75;73.07422;95531.24;;;;
2022/08/24 03:57:01;;;;;;;7.3;6.6;;;;;;;10.75;73.07422;95531.24;;;;
2022/08/24 03:58:01;;;;;;;7.3;6.6;;;;;;;10.75;73.07422;95531.24;;;;
2022/08/24 03:59:02;;;;;;;7.3;6.6;;;;;;;10.75;73.07422;95531.24;;;;
2022/08/24 04:00:03;;;;;;;7.3;6.6;;;;;;;10.75;73.07422;95531.24;;;;
2022/08/24 04:01:07;;;;;;;7.3;6.6;;;;;;;10.75;73.07422;95531.24;;;;
2022/08/24 04:02:08;;;;;;;7.3;6.6;;;;;;;10.75;73.07422;95531.24;;;;
2022/08/24 04:03:09;;;;;;;7.45;6.749999;;;;;;;10.7;73.29297;95534.06;;;;
2022/08/24 04:04:10;;;;;;;7.45;6.749999;;;;;;;10.7;73.29297;95534.06;;;;
2022/08/24 04:05:12;;;;;;;7.45;6.749999;;;;;;;10.7;73.29297;95534.06;;;;
2022/08/24 04:06:12;;;;;;;7.45;6.749999;;;;;;;10.7;73.29297;95534.06;;;;
2022/08/24 04:07:14;;;;;;;7.45;6.749999;;;;;;;10.7;73.29297;95534.06;;;;
2022/08/24 04:08:15;;;;;;;7.45;6.749999;;;;;;;10.7;73.29297;95534.06;;;;
2022/08/24 04:09:16;;;;;;;7.45;6.749999;;;;;;;10.7;73.29297;95534.06;;;;
2022/08/24 04:10:16;;;;;;;7.45;6.749999;;;;;;;10.7;73.29297;95534.06;;;;
2022/08/24 04:11:18;;;;;;;7.45;6.749999;;;;;;;10.7;73.29297;95534.06;;;;
2022/08/24 04:12:21;;;;;;;7.45;6.749999;;;;;;;10.7;73.29297;95534.06;;;;
2022/08/24 04:13:23;;;;;;;8.800001;6.799999;;;;;;;10.6;73.42773;95540.72;;;;
2022/08/24 04:14:24;;;;;;;8.800001;6.799999;;;;;;;10.6;73.42773;95540.72;;;;
2022/08/24 04:15:25;;;;;;;8.800001;6.799999;;;;;;;10.6;73.42773;95540.72;;;;
2022/08/24 04:16:25;;;;;;;8.800001;6.799999;;;;;;;10.6;73.42773;95540.72;;;;
2022/08/24 04:17:29;;;;;;;8.800001;6.799999;;;;;;;10.6;73.42773;95540.72;;;;
2022/08/24 04:18:29;;;;;;;8.800001;6.799999;;;;;;;10.6;73.42773;95540.72;;;;
2022/08/24 04:19:30;;;;;;;8.800001;6.799999;;;;;;;10.6;73.42773;95540.72;;;;
2022/08/24 04:20:32;;;;;;;8.800001;6.799999;;;;;;;10.6;73.42773;95540.72;;;;
2022/08/24 04:21:37;;;;;;;8.800001;6.799999;;;;;;;10.6;73.42773;95540.72;;;;
2022/08/24 04:22:37;;;;;;;8.800001;6.799999;;;;;;;10.6;73.42773;95540.72;;;;
2022/08/24 04:23:38;;;;;;;8.800001;6.799999;;;;;;;10.6;73.42773;95540.72;;;;
2022/08/24 04:24:38;;;;;;;7.15;6.4;;;;;;;10.58;73.61816;95542.75;;;;
2022/08/24 04:25:39;;;;;;;7.15;6.4;;;;;;;10.58;73.61816;95542.75;;;;
2022/08/24 04:26:41;;;;;;;7.15;6.4;;;;;;;10.58;73.61816;95542.75;;;;
2022/08/24 04:27:42;;;;;;;7.15;6.4;;;;;;;10.58;73.61816;95542.75;;;;
2022/08/24 04:28:43;;;;;;;7.15;6.4;;;;;;;10.58;73.61816;95542.75;;;;
2022/08/24 04:29:43;;;;;;;7.15;6.4;;;;;;;10.58;73.61816;95542.75;;;;
2022/08/24 04:30:44;;;;;;;7.15;6.4;;;;;;;10.58;73.61816;95542.75;;;;
2022/08/24 04:31:47;;;;;;;7.15;6.4;;;;;;;10.58;73.61816;95542.75;;;;
2022/08/24 04:32:48;;;;;;;7.15;6.4;;;;;;;10.58;73.61816;95542.75;;;;
2022/08/24 04:33:48;;;;;;;7.15;6.4;;;;;;;10.58;73.61816;95542.75;;;;
2022/08/24 04:34:50;;;;;;;7.15;6.299999;;;;;;;10.52;73.76855;95535.24;;;;
2022/08/24 04:35:50;;;;;;;7.15;6.299999;;;;;;;10.52;73.76855;95535.24;;;;
2022/08/24 04:36:51;;;;;;;7.15;6.299999;;;;;;;10.52;73.76855;95535.24;;;;
2022/08/24 04:37:51;;;;;;;7.15;6.299999;;;;;;;10.52;73.76855;95535.24;;;;
2022/08/24 04:38:52;;;;;;;7.15;6.299999;;;;;;;10.52;73.76855;95535.24;;;;
2022/08/24 04:39:52;;;;;;;7.15;6.299999;;;;;;;10.52;73.76855;95535.24;;;;
2022/08/24 04:40:53;;;;;;;7.15;6.299999;;;;;;;10.52;73.76855;95535.24;;;;
2022/08/24 04:41:56;;;;;;;7.15;6.299999;;;;;;;10.52;73.76855;95535.24;;;;
2022/08/24 04:42:57;;;;;;;7.15;6.299999;;;;;;;10.52;73.76855;95535.24;;;;
2022/08/24 04:43:58;;;;;;;7.15;6.299999;;;;;;;10.52;73.76855;95535.24;;;;
2022/08/24 04:44:59;;;;;;;7.15;6.299999;;;;;;;10.52;73.76855;95535.24;;;;
2022/08/24 04:46:00;;;;;;;7.25;6.500001;;;;;;;10.58;73.8877;95538.78;;;;
2022/08/24 04:47:04;;;;;;;7.25;6.500001;;;;;;;10.58;73.8877;95538.78;;;;
2022/08/24 04:48:05;;;;;;;7.25;6.500001;;;;;;;10.58;73.8877;95538.78;;;;
2022/08/24 04:49:07;;;;;;;7.25;6.500001;;;;;;;10.58;73.8877;95538.78;;;;
2022/08/24 04:50:07;;;;;;;7.25;6.500001;;;;;;;10.58;73.8877;95538.78;;;;
2022/08/24 04:51:08;;;;;;;7.25;6.500001;;;;;;;10.58;73.8877;95538.78;;;;
2022/08/24 04:52:10;;;;;;;7.25;6.500001;;;;;;;10.58;73.8877;95538.78;;;;
2022/08/24 04:53:12;;;;;;;7.25;6.500001;;;;;;;10.58;73.8877;95538.78;;;;
2022/08/24 04:54:13;;;;;;;7.25;6.500001;;;;;;;10.58;73.8877;95538.78;;;;
2022/08/24 04:55:14;;;;;;;7.25;6.500001;;;;;;;10.58;73.8877;95538.78;;;;
2022/08/24 04:56:15;;;;;;;7.650001;6.849999;;;;;;;10.63;73.95996;95550.89;;;;
2022/08/24 04:57:19;;;;;;;7.650001;6.849999;;;;;;;10.63;73.95996;95550.89;;;;
2022/08/24 04:58:19;;;;;;;7.650001;6.849999;;;;;;;10.63;73.95996;95550.89;;;;
2022/08/24 04:59:20;;;;;;;7.650001;6.849999;;;;;;;10.63;73.95996;95550.89;;;;
2022/08/24 05:00:20;;;;;;;7.650001;6.849999;;;;;;;10.63;73.95996;95550.89;;;;
2022/08/24 05:01:21;;;;;;;7.650001;6.849999;;;;;;;10.63;73.95996;95550.89;;;;
2022/08/24 05:02:24;;;;;;;7.650001;6.849999;;;;;;;10.63;73.95996;95550.89;;;;
2022/08/24 05:03:25;;;;;;;7.650001;6.849999;;;;;;;10.63;73.95996;95550.89;;;;
2022/08/24 05:04:26;;;;;;;7.650001;6.849999;;;;;;;10.63;73.95996;95550.89;;;;
2022/08/24 05:05:27;;;;;;;7.650001;6.849999;;;;;;;10.63;73.95996;95550.89;;;;
2022/08/24 05:06:27;;;;;;;7.650001;6.849999;;;;;;;10.63;73.95996;95550.89;;;;
2022/08/24 05:07:29;;;;;;;6.95;6.05;;;;;;;10.79;74.02832;95556.23;;;;
2022/08/24 05:08:30;;;;;;;6.95;6.05;;;;;;;10.79;74.02832;95556.23;;;;
2022/08/24 05:09:31;;;;;;;6.95;6.05;;;;;;;10.79;74.02832;95556.23;;;;
2022/08/24 05:10:32;;;;;;;6.95;6.05;;;;;;;10.79;74.02832;95556.23;;;;
2022/08/24 05:11:32;;;;;;;6.95;6.05;;;;;;;10.79;74.02832;95556.23;;;;
2022/08/24 05:12:35;;;;;;;6.95;6.05;;;;;;;10.79;74.02832;95556.23;;;;
2022/08/24 05:13:36;;;;;;;6.95;6.05;;;;;;;10.79;74.02832;95556.23;;;;
2022/08/24 05:14:37;;;;;;;6.95;6.05;;;;;;;10.79;74.02832;95556.23;;;;
2022/08/24 05:15:38;;;;;;;6.95;6.05;;;;;;;10.79;74.02832;95556.23;;;;
2022/08/24 05:16:40;;;;;;;6.95;6.05;;;;;;;10.79;74.02832;95556.23;;;;
2022/08/24 05:17:41;;;;;;;7.249999;6.55;;;;;;;10.97;74.08105;95551.53;;;;
2022/08/24 05:18:42;;;;;;;7.249999;6.55;;;;;;;10.97;74.08105;95551.53;;;;
2022/08/24 05:19:44;;;;;;;7.249999;6.55;;;;;;;10.97;74.08105;95551.53;;;;
2022/08/24 05:20:44;;;;;;;7.249999;6.55;;;;;;;10.97;74.08105;95551.53;;;;
2022/08/24 05:21:46;;;;;;;7.249999;6.55;;;;;;;10.97;74.08105;95551.53;;;;
2022/08/24 05:22:46;;;;;;;7.249999;6.55;;;;;;;10.97;74.08105;95551.53;;;;
2022/08/24 05:23:47;;;;;;;7.249999;6.55;;;;;;;10.97;74.08105;95551.53;;;;
2022/08/24 05:24:47;;;;;;;7.249999;6.55;;;;;;;10.97;74.08105;95551.53;;;;
2022/08/24 05:25:48;;;;;;;7.249999;6.55;;;;;;;10.97;74.08105;95551.53;;;;
2022/08/24 05:26:50;;;;;;;7.249999;6.55;;;;;;;10.97;74.08105;95551.53;;;;
2022/08/24 05:27:50;;;;;;;7.249999;6.55;;;;;;;10.97;74.08105;95551.53;;;;
2022/08/24 05:28:51;;;;;;;7.249999;6.55;;;;;;;10.97;74.08105;95551.53;;;;
2022/08/24 05:29:53;;;;;;;7.249999;6.55;;;;;;;10.97;74.08105;95551.53;;;;
2022/08/24 05:30:54;;;;;;;7.249999;6.55;;;;;;;10.97;74.08105;95551.53;;;;
2022/08/24 05:31:54;;;;;;;7.249999;6.55;;;;;;;10.97;74.08105;95551.53;;;;
2022/08/24 05:32:55;;;;;;;7.249999;6.55;;;;;;;10.97;74.08105;95551.53;;;;
2022/08/24 05:33:55;;;;;;;7.249999;6.55;;;;;;;10.97;74.08105;95551.53;;;;
2022/08/24 05:34:57;;;;;;;7.249999;6.55;;;;;;;10.97;74.08105;95551.53;;;;
2022/08/24 05:35:59;;;;;;;7.249999;6.55;;;;;;;10.97;74.08105;95551.53;;;;
2022/08/24 05:36:59;;;;;;;7.249999;6.55;;;;;;;10.97;74.08105;95551.53;;;;
2022/08/24 05:38:00;;;;;;;7.249999;6.55;;;;;;;10.97;74.08105;95551.53;;;;